createdAt,value
2018-10-12T00:00:07.845Z,14.47
2018-10-12T00:02:36.725Z,14.63
2018-10-12T00:05:05.621Z,12.27
2018-10-12T00:07:34.377Z,13.57
2018-10-12T00:10:03.990Z,12.03
2018-10-12T00:12:32.752Z,13.00
2018-10-12T00:15:01.552Z,10.37
2018-10-12T00:17:30.317Z,12.17
2018-10-12T00:19:59.270Z,11.80
2018-10-12T00:22:28.060Z,13.77
2018-10-12T00:24:56.755Z,10.20
2018-10-12T00:27:25.524Z,14.20
2018-10-12T00:29:54.341Z,12.20
2018-10-12T00:32:23.547Z,13.57
2018-10-12T00:34:52.232Z,12.80
2018-10-12T00:37:20.898Z,13.47
2018-10-12T00:39:49.575Z,8.97
2018-10-12T00:42:18.296Z,14.20
2018-10-12T00:44:47.039Z,13.40
2018-10-12T00:47:15.836Z,13.83
2018-10-12T00:49:44.539Z,11.13
2018-10-12T00:52:13.221Z,13.90
2018-10-12T00:54:42.081Z,14.90
2018-10-12T00:57:10.829Z,15.33
2018-10-12T00:59:39.563Z,10.23
2018-10-12T01:02:08.372Z,13.40
2018-10-12T01:04:37.219Z,12.27
2018-10-12T01:07:05.966Z,8.37
2018-10-12T01:09:34.719Z,12.13
2018-10-12T01:12:09.691Z,14.63
2018-10-12T01:14:38.421Z,15.17
2018-10-12T01:17:07.108Z,11.73
2018-10-12T01:19:35.966Z,13.03
2018-10-12T01:22:04.840Z,15.33
2018-10-12T01:24:33.881Z,14.00
2018-10-12T01:27:02.597Z,10.00
2018-10-12T01:29:31.320Z,16.40
2018-10-12T01:32:00.187Z,16.00
2018-10-12T01:34:28.887Z,15.17
2018-10-12T01:36:57.767Z,15.33
2018-10-12T01:39:26.536Z,15.30
2018-10-12T01:41:55.259Z,12.90
2018-10-12T01:44:24.120Z,13.97
2018-10-12T01:46:52.781Z,14.97
2018-10-12T01:49:21.473Z,14.90
2018-10-12T01:51:50.195Z,14.43
2018-10-12T01:54:18.921Z,11.00
2018-10-12T01:56:47.642Z,15.47
2018-10-12T01:59:16.388Z,14.57
2018-10-12T02:01:45.093Z,15.73
2018-10-12T02:04:13.843Z,14.90
2018-10-12T02:06:42.879Z,9.77
2018-10-12T02:09:11.920Z,11.37
2018-10-12T02:11:40.826Z,15.00
2018-10-12T02:14:09.515Z,14.43
2018-10-12T02:16:38.312Z,15.17
2018-10-12T02:19:06.999Z,15.07
2018-10-12T02:21:35.897Z,15.20
2018-10-12T02:24:04.639Z,14.47
2018-10-12T02:26:33.407Z,9.10
2018-10-12T02:29:02.121Z,15.50
2018-10-12T02:31:30.785Z,15.40
2018-10-12T02:33:59.655Z,15.13
2018-10-12T02:36:28.837Z,12.33
2018-10-12T02:38:57.611Z,14.00
2018-10-12T02:41:26.481Z,13.20
2018-10-12T02:43:55.166Z,12.13
2018-10-12T02:46:23.942Z,15.73
2018-10-12T02:48:52.674Z,11.73
2018-10-12T02:51:21.468Z,14.10
2018-10-12T02:53:50.155Z,13.60
2018-10-12T02:56:21.273Z,14.83
2018-10-12T02:58:51.008Z,13.90
2018-10-12T03:01:20.698Z,13.33
2018-10-12T03:03:49.996Z,16.13
2018-10-12T03:06:18.720Z,11.80
2018-10-12T03:08:47.716Z,11.13
2018-10-12T03:11:16.603Z,14.57
2018-10-12T03:13:45.444Z,14.73
2018-10-12T03:16:14.591Z,10.20
2018-10-12T03:18:43.457Z,13.07
2018-10-12T03:21:12.287Z,11.57
2018-10-12T03:23:41.294Z,15.90
2018-10-12T03:26:10.056Z,12.63
2018-10-12T03:28:38.726Z,12.40
2018-10-12T03:31:08.083Z,12.93
2018-10-12T03:33:36.849Z,13.77
2018-10-12T03:36:06.248Z,11.63
2018-10-12T03:38:35.124Z,15.30
2018-10-12T03:41:04.129Z,14.93
2018-10-12T03:43:33.026Z,13.90
2018-10-12T03:46:01.880Z,14.53
2018-10-12T03:48:30.670Z,15.03
2018-10-12T03:50:59.612Z,13.20
2018-10-12T03:53:28.419Z,14.80
2018-10-12T03:55:57.565Z,14.03
2018-10-12T03:58:26.376Z,14.47
2018-10-12T04:00:55.227Z,12.73
2018-10-12T04:03:24.021Z,14.17
2018-10-12T04:05:52.977Z,12.80
2018-10-12T04:08:21.752Z,13.17
2018-10-12T04:10:50.505Z,12.97
2018-10-12T04:13:19.251Z,9.47
2018-10-12T04:15:47.979Z,11.33
2018-10-12T04:18:16.855Z,10.83
2018-10-12T04:20:45.586Z,12.00
2018-10-12T04:23:14.605Z,9.33
2018-10-12T04:25:43.643Z,8.90
2018-10-12T04:28:12.560Z,9.10
2018-10-12T04:30:41.429Z,9.07
2018-10-12T04:33:10.282Z,9.10
2018-10-12T04:35:39.012Z,8.57
2018-10-12T04:38:08.416Z,9.20
2018-10-12T04:41:23.058Z,9.10
2018-10-12T04:44:00.922Z,8.20
2018-10-12T04:46:32.422Z,8.73
2018-10-12T04:49:01.207Z,8.23
2018-10-12T04:51:35.972Z,7.50
2018-10-12T04:54:04.771Z,8.50
2018-10-12T04:56:33.525Z,7.57
2018-10-12T04:59:02.334Z,6.90
2018-10-12T05:01:31.102Z,7.30
2018-10-12T05:03:59.941Z,7.67
2018-10-12T05:06:28.952Z,8.03
2018-10-12T05:08:57.696Z,8.17
2018-10-12T05:11:26.576Z,8.03
2018-10-12T05:13:55.538Z,8.60
2018-10-12T05:16:24.488Z,8.90
2018-10-12T05:18:53.168Z,8.70
2018-10-12T05:21:22.051Z,8.23
2018-10-12T05:23:51.129Z,7.83
2018-10-12T05:26:20.201Z,7.93
2018-10-12T05:28:49.321Z,7.57
2018-10-12T05:31:18.317Z,8.65
2018-10-12T05:33:47.488Z,6.90
2018-10-12T05:36:16.629Z,8.53
2018-10-12T05:38:46.192Z,8.17
2018-10-12T05:41:16.248Z,10.10
2018-10-12T05:43:47.481Z,7.20
2018-10-12T05:46:24.363Z,9.63
2018-10-12T05:48:59.757Z,14.60
2018-10-12T06:02:54.853Z,10.35
2018-10-12T06:05:25.930Z,9.80
2018-10-12T06:07:56.384Z,9.40
2018-10-12T06:10:26.952Z,9.73
2018-10-12T06:12:56.842Z,8.67
2018-10-12T06:15:25.810Z,9.17
2018-10-12T06:17:54.530Z,7.10
2018-10-12T06:20:23.347Z,8.87
2018-10-12T06:22:52.157Z,8.13
2018-10-12T06:25:20.803Z,8.27
2018-10-12T06:27:49.624Z,8.20
2018-10-12T06:30:18.460Z,8.30
2018-10-12T06:32:47.388Z,8.97
2018-10-12T06:35:16.500Z,8.27
2018-10-12T06:37:45.583Z,7.10
2018-10-12T06:40:15.192Z,7.57
2018-10-12T06:42:44.728Z,8.13
2018-10-12T06:45:13.745Z,8.13
2018-10-12T06:47:42.448Z,8.50
2018-10-12T06:50:11.185Z,8.53
2018-10-12T06:52:40.054Z,8.50
2018-10-12T06:55:09.099Z,7.77
2018-10-12T06:57:37.861Z,7.47
2018-10-12T07:13:25.784Z,6.30
2018-10-12T07:15:55.120Z,6.93
2018-10-12T07:18:23.898Z,7.37
2018-10-12T07:20:52.824Z,6.63
2018-10-12T07:23:21.564Z,6.50
2018-10-12T07:25:50.384Z,6.20
2018-10-12T07:28:19.640Z,6.70
2018-10-12T07:30:48.489Z,6.47
2018-10-12T07:33:17.407Z,5.73
2018-10-12T07:35:46.216Z,6.10
2018-10-12T07:38:15.194Z,6.47
2018-10-12T07:40:50.223Z,5.37
2018-10-12T07:43:25.316Z,6.43
2018-10-12T07:46:06.444Z,6.73
2018-10-12T07:48:41.227Z,6.10
2018-10-12T07:51:10.601Z,5.10
2018-10-12T07:53:45.413Z,5.73
2018-10-12T07:56:17.866Z,5.57
2018-10-12T07:58:47.331Z,6.20
2018-10-12T08:01:16.090Z,5.93
2018-10-12T08:03:44.850Z,5.13
2018-10-12T08:06:13.941Z,5.17
2018-10-12T08:08:42.613Z,6.27
2018-10-12T08:11:11.853Z,5.20
2018-10-12T08:13:40.809Z,5.90
2018-10-12T08:18:51.478Z,5.47
2018-10-12T08:21:21.677Z,5.20
2018-10-12T08:23:50.584Z,5.13
2018-10-12T08:26:19.900Z,4.40
2018-10-12T08:28:49.690Z,4.97
2018-10-12T08:31:18.349Z,5.43
2018-10-12T08:33:47.894Z,5.17
2018-10-12T08:36:17.043Z,5.10
2018-10-12T08:38:45.958Z,5.07
2018-10-12T08:41:14.680Z,5.00
2018-10-12T08:43:43.500Z,4.83
2018-10-12T08:46:12.448Z,4.50
2018-10-12T08:48:41.216Z,5.07
2018-10-12T08:51:09.992Z,3.63
2018-10-12T08:53:38.733Z,4.40
2018-10-12T08:56:07.421Z,3.83
2018-10-12T08:58:36.888Z,3.93
2018-10-12T09:01:05.752Z,4.17
2018-10-12T09:03:34.504Z,3.50
2018-10-12T09:06:04.115Z,3.73
2018-10-12T09:08:32.844Z,3.30
2018-10-12T09:11:01.598Z,3.50
2018-10-12T09:13:30.322Z,3.60
2018-10-12T09:15:59.205Z,3.03
2018-10-12T09:18:28.026Z,3.60
2018-10-12T09:20:56.818Z,3.20
2018-10-12T09:23:25.796Z,3.20
2018-10-12T09:25:54.835Z,2.90
2018-10-12T09:28:23.847Z,2.60
2018-10-12T09:30:52.999Z,2.90
2018-10-12T09:33:22.197Z,2.67
2018-10-12T09:35:51.676Z,2.57
2018-10-12T09:38:20.779Z,2.30
2018-10-12T09:40:49.682Z,2.57
2018-10-12T09:43:18.504Z,3.30
2018-10-12T09:45:47.377Z,2.60
2018-10-12T09:48:16.331Z,2.10
2018-10-12T09:50:44.993Z,2.30
2018-10-12T09:53:13.745Z,2.33
2018-10-12T09:55:42.610Z,2.40
2018-10-12T09:58:11.552Z,2.17
2018-10-12T10:00:45.445Z,2.60
2018-10-12T10:03:19.368Z,2.45
2018-10-12T10:05:48.043Z,2.63
2018-10-12T10:08:16.930Z,2.30
2018-10-12T10:10:45.533Z,2.00
2018-10-12T10:13:14.271Z,2.33
2018-10-12T10:15:42.960Z,2.03
2018-10-12T10:18:12.270Z,2.10
2018-10-12T10:20:40.895Z,2.37
2018-10-12T10:23:09.600Z,1.93
2018-10-12T10:25:39.375Z,2.70
2018-10-12T10:28:08.050Z,2.20
2018-10-12T10:30:36.820Z,2.73
2018-10-12T10:33:06.051Z,2.93
2018-10-12T10:35:36.618Z,2.60
2018-10-12T10:38:04.855Z,2.37
2018-10-12T10:40:33.582Z,2.50
2018-10-12T10:43:02.311Z,2.73
2018-10-12T10:45:31.012Z,2.90
2018-10-12T10:47:59.645Z,3.00
2018-10-12T10:50:28.393Z,2.53
2018-10-12T10:52:57.083Z,5.10
2018-10-12T10:55:25.796Z,2.73
2018-10-12T10:57:54.500Z,2.27
2018-10-12T11:00:23.438Z,2.97
2018-10-12T11:02:52.290Z,2.87
2018-10-12T11:05:21.396Z,3.20
2018-10-12T11:07:50.208Z,2.70
2018-10-12T11:10:18.899Z,2.40
2018-10-12T11:12:47.658Z,2.87
2018-10-12T11:15:16.262Z,2.53
2018-10-12T11:17:45.055Z,2.20
2018-10-12T11:20:13.859Z,2.37
2018-10-12T11:22:42.741Z,2.40
2018-10-12T11:25:11.521Z,2.07
2018-10-12T11:27:40.554Z,2.60
2018-10-12T11:30:09.422Z,2.17
2018-10-12T11:32:38.108Z,2.43
2018-10-12T11:35:07.113Z,2.30
2018-10-12T11:37:35.820Z,2.20
2018-10-12T11:40:04.518Z,1.97
2018-10-12T11:42:38.867Z,1.70
2018-10-12T11:45:07.583Z,2.27
2018-10-12T11:47:36.222Z,2.80
2018-10-12T11:50:05.157Z,2.43
2018-10-12T11:52:34.243Z,2.40
2018-10-12T11:55:03.021Z,2.03
2018-10-12T11:57:31.753Z,2.10
2018-10-12T12:00:00.532Z,2.20
2018-10-12T12:02:29.410Z,2.40
2018-10-12T12:04:58.097Z,2.07
2018-10-12T12:07:26.905Z,2.30
2018-10-12T12:09:55.600Z,2.60
2018-10-12T12:12:24.235Z,2.30
2018-10-12T12:14:52.927Z,2.33
2018-10-12T12:17:21.605Z,2.00
2018-10-12T12:19:50.329Z,2.43
2018-10-12T12:22:18.956Z,2.37
2018-10-12T12:24:47.603Z,2.10
2018-10-12T12:27:16.484Z,2.20
2018-10-12T12:29:45.261Z,1.53
2018-10-12T12:32:14.142Z,2.17
2018-10-12T12:34:42.999Z,1.80
2018-10-12T12:37:11.524Z,2.37
2018-10-12T12:39:40.189Z,1.80
2018-10-12T12:42:08.906Z,2.90
2018-10-12T12:44:37.747Z,2.27
2018-10-12T12:47:06.504Z,2.07
2018-10-12T12:49:35.328Z,2.00
2018-10-12T12:52:04.520Z,2.53
2018-10-12T12:54:33.386Z,3.00
2018-10-12T12:57:02.223Z,2.00
2018-10-12T12:59:31.161Z,1.70
2018-10-12T13:01:59.894Z,1.90
2018-10-12T13:04:28.902Z,1.70
2018-10-12T13:06:58.056Z,1.70
2018-10-12T13:09:26.806Z,1.70
2018-10-12T13:11:55.442Z,2.00
2018-10-12T13:14:24.079Z,2.13
2018-10-12T13:16:52.803Z,1.73
2018-10-12T13:19:21.471Z,2.17
2018-10-12T13:21:50.306Z,1.53
2018-10-12T13:24:19.472Z,1.77
2018-10-12T13:26:48.673Z,2.13
2018-10-12T13:29:17.364Z,1.90
2018-10-12T13:31:46.200Z,1.77
2018-10-12T13:34:14.980Z,1.60
2018-10-12T13:36:43.770Z,1.80
2018-10-12T13:39:13.602Z,2.27
2018-10-12T13:41:42.571Z,1.80
2018-10-12T13:44:11.541Z,2.40
2018-10-12T13:46:40.916Z,2.30
2018-10-12T13:49:09.545Z,1.63
2018-10-12T13:51:38.551Z,2.00
2018-10-12T13:54:07.369Z,1.83
2018-10-12T13:56:36.535Z,1.73
2018-10-12T13:59:05.569Z,2.07
2018-10-12T14:01:34.494Z,1.90
2018-10-12T14:04:03.373Z,2.00
2018-10-12T14:06:32.234Z,1.90
2018-10-12T14:09:01.059Z,1.60
2018-10-12T14:11:30.211Z,1.80
2018-10-12T14:13:59.716Z,1.80
2018-10-12T14:16:28.602Z,2.33
2018-10-12T14:18:59.715Z,1.67
2018-10-12T14:21:37.076Z,1.93
2018-10-12T14:24:06.676Z,2.00
2018-10-12T14:26:35.358Z,2.10
2018-10-12T14:29:05.259Z,1.70
2018-10-12T14:31:34.639Z,1.67
2018-10-12T14:34:04.019Z,1.77
2018-10-12T14:36:33.300Z,1.87
2018-10-12T14:39:02.498Z,2.40
2018-10-12T14:41:31.608Z,2.20
2018-10-12T14:44:00.893Z,1.70
2018-10-12T14:46:29.817Z,2.37
2018-10-12T14:48:59.496Z,2.43
2018-10-12T14:51:28.468Z,4.20
2018-10-12T14:53:57.484Z,3.27
2018-10-12T14:56:27.941Z,2.33
2018-10-12T14:58:56.924Z,1.90
2018-10-12T15:01:26.935Z,1.77
2018-10-12T15:03:55.708Z,2.00
2018-10-12T15:06:25.296Z,2.60
2018-10-12T15:08:54.211Z,2.70
2018-10-12T15:11:23.498Z,1.90
2018-10-12T15:13:53.186Z,1.90
2018-10-12T15:16:22.022Z,2.40
2018-10-12T15:18:50.941Z,1.90
2018-10-12T15:21:20.014Z,2.33
2018-10-12T15:23:48.617Z,2.00
2018-10-12T15:26:17.984Z,1.97
2018-10-12T15:28:46.668Z,3.50
2018-10-12T15:31:15.448Z,2.90
2018-10-12T15:33:44.171Z,2.67
2018-10-12T15:36:12.937Z,2.63
2018-10-12T15:38:41.759Z,2.97
2018-10-12T15:41:10.480Z,2.60
2018-10-12T15:43:39.297Z,2.47
2018-10-12T15:46:08.205Z,2.53
2018-10-12T15:48:37.073Z,2.53
2018-10-12T15:51:06.183Z,3.10
2018-10-12T15:53:35.127Z,3.03
2018-10-12T15:56:04.786Z,3.10
2018-10-12T15:58:33.481Z,3.37
2018-10-12T16:01:02.194Z,2.97
2018-10-12T16:03:30.987Z,2.30
2018-10-12T16:05:59.765Z,2.57
2018-10-12T16:08:28.466Z,3.23
2018-10-12T16:10:57.188Z,2.83
2018-10-12T16:13:25.996Z,3.30
2018-10-12T16:15:54.754Z,3.10
2018-10-12T16:18:23.428Z,2.77
2018-10-12T16:20:52.236Z,3.53
2018-10-12T16:23:20.913Z,2.63
2018-10-12T16:25:56.345Z,2.67
2018-10-12T16:28:25.128Z,2.50
2018-10-12T16:30:54.567Z,2.17
2018-10-12T16:33:23.695Z,2.17
2018-10-12T16:35:53.689Z,2.40
2018-10-12T16:38:22.318Z,2.90
2018-10-12T16:40:51.214Z,2.40
2018-10-12T16:43:20.031Z,2.40
2018-10-12T16:45:49.975Z,2.97
2018-10-12T16:48:18.710Z,2.77
2018-10-12T16:50:47.382Z,8.67
2018-10-12T16:53:16.307Z,3.65
2018-10-12T16:55:44.934Z,5.27
2018-10-12T16:58:14.563Z,3.43
2018-10-12T17:00:43.504Z,3.37
2018-10-12T17:03:12.536Z,3.57
2018-10-12T17:05:41.365Z,3.30
2018-10-12T17:08:10.221Z,2.80
2018-10-12T17:10:38.975Z,3.33
2018-10-12T17:13:07.736Z,3.70
2018-10-12T17:15:36.356Z,3.83
2018-10-12T17:18:05.146Z,4.83
2018-10-12T17:20:33.813Z,4.07
2018-10-12T17:23:02.539Z,4.40
2018-10-12T17:25:31.243Z,3.37
2018-10-12T17:28:00.062Z,4.37
2018-10-12T17:30:29.043Z,4.27
2018-10-12T17:32:57.697Z,4.63
2018-10-12T17:35:26.516Z,3.20
2018-10-12T17:37:55.337Z,2.77
2018-10-12T17:40:26.537Z,3.70
2018-10-12T17:42:55.365Z,3.37
2018-10-12T17:45:24.191Z,3.47
2018-10-12T17:47:52.903Z,4.70
2018-10-12T17:50:21.665Z,3.03
2018-10-12T17:52:50.358Z,2.70
2018-10-12T17:55:19.028Z,3.60
2018-10-12T17:57:47.701Z,3.43
2018-10-12T18:00:16.631Z,2.93
2018-10-12T18:02:45.167Z,5.07
2018-10-12T18:05:13.895Z,3.73
2018-10-12T18:07:42.517Z,4.97
2018-10-12T18:10:11.783Z,5.03
2018-10-12T18:12:40.446Z,4.57
2018-10-12T18:15:09.910Z,3.20
2018-10-12T18:17:39.089Z,3.67
2018-10-12T18:20:08.084Z,4.30
2018-10-12T18:22:36.861Z,3.43
2018-10-12T18:25:05.807Z,3.17
2018-10-12T18:27:34.467Z,2.93
2018-10-12T18:30:03.928Z,3.20
2018-10-12T18:32:32.598Z,4.87
2018-10-12T18:35:01.377Z,5.43
2018-10-12T18:37:30.038Z,4.33
2018-10-12T18:39:58.653Z,3.63
2018-10-12T18:42:27.300Z,4.10
2018-10-12T18:44:56.024Z,3.53
2018-10-12T18:47:24.765Z,2.87
2018-10-12T18:49:53.457Z,3.40
2018-10-12T18:52:22.536Z,3.63
2018-10-12T18:54:52.189Z,4.23
2018-10-12T18:57:20.935Z,4.87
2018-10-12T18:59:49.581Z,8.43
2018-10-12T19:02:18.388Z,3.47
2018-10-12T19:04:47.165Z,4.23
2018-10-12T19:07:15.763Z,3.67
2018-10-12T19:09:44.426Z,7.97
2018-10-12T19:12:13.073Z,6.07
2018-10-12T19:14:41.703Z,4.40
2018-10-12T19:17:10.412Z,3.80
2018-10-12T19:19:39.165Z,2.80
2018-10-12T19:22:07.825Z,2.70
2018-10-12T19:24:36.455Z,2.70
2018-10-12T19:27:05.368Z,3.07
2018-10-12T19:29:34.101Z,3.05
2018-10-12T19:32:02.761Z,4.10
2018-10-12T19:34:31.525Z,3.30
2018-10-12T19:37:00.232Z,3.43
2018-10-12T19:39:28.910Z,3.30
2018-10-12T19:41:57.684Z,3.47
2018-10-12T19:44:26.388Z,2.70
2018-10-12T19:46:55.066Z,3.20
2018-10-12T19:49:23.752Z,3.97
2018-10-12T19:51:52.384Z,3.77
2018-10-12T19:54:21.054Z,5.93
2018-10-12T19:56:49.741Z,3.10
2018-10-12T19:59:18.489Z,2.63
2018-10-12T20:01:47.188Z,3.93
2018-10-12T20:04:15.844Z,3.60
2018-10-12T20:06:44.632Z,4.27
2018-10-12T20:09:13.367Z,3.90
2018-10-12T20:11:42.156Z,3.60
2018-10-12T20:14:10.764Z,3.57
2018-10-12T20:16:39.525Z,4.43
2018-10-12T20:19:08.659Z,4.53
2018-10-12T20:21:37.280Z,3.73
2018-10-12T20:24:06.101Z,3.97
2018-10-12T20:26:34.729Z,4.20
2018-10-12T20:29:04.096Z,3.70
2018-10-12T20:31:32.792Z,3.30
2018-10-12T20:34:01.423Z,4.40
2018-10-12T20:36:30.176Z,4.87
2018-10-12T20:38:58.878Z,3.90
2018-10-12T20:41:27.760Z,5.23
2018-10-12T20:43:56.409Z,3.50
2018-10-12T20:46:25.070Z,4.63
2018-10-12T20:48:53.663Z,3.90
2018-10-12T20:51:22.320Z,4.20
2018-10-12T20:53:51.109Z,4.50
2018-10-12T20:56:19.866Z,4.10
2018-10-12T20:58:48.790Z,3.83
2018-10-12T21:01:17.529Z,4.23
2018-10-12T21:03:46.211Z,4.10
2018-10-12T21:06:14.885Z,4.07
2018-10-12T21:08:43.558Z,4.07
2018-10-12T21:11:12.216Z,4.30
2018-10-12T21:13:40.870Z,4.97
2018-10-12T21:16:09.567Z,4.47
2018-10-12T21:18:38.245Z,3.40
2018-10-12T21:21:06.921Z,3.97
2018-10-12T21:23:35.611Z,3.87
2018-10-12T21:26:04.632Z,3.00
2018-10-12T21:28:33.301Z,3.97
2018-10-12T21:31:02.116Z,3.77
2018-10-12T21:33:30.938Z,3.50
2018-10-12T21:35:59.729Z,4.00
2018-10-12T21:38:28.391Z,4.00
2018-10-12T21:40:57.099Z,4.40
2018-10-12T21:43:25.769Z,3.30
2018-10-12T21:45:54.523Z,3.37
2018-10-12T21:48:23.218Z,4.07
2018-10-12T21:50:51.879Z,3.23
2018-10-12T21:53:20.533Z,4.17
2018-10-12T21:55:49.463Z,4.23
2018-10-12T21:58:18.135Z,3.73
2018-10-12T22:00:51.069Z,3.20
2018-10-12T22:03:20.128Z,3.27
2018-10-12T22:05:48.832Z,4.67
2018-10-12T22:08:23.014Z,3.83
2018-10-12T22:10:51.617Z,4.70
2018-10-12T22:13:20.359Z,3.23
2018-10-12T22:15:49.067Z,4.07
2018-10-12T22:18:17.704Z,3.43
2018-10-12T22:20:46.528Z,4.23
2018-10-12T22:23:15.248Z,3.17
2018-10-12T22:25:44.120Z,3.57
2018-10-12T22:28:12.746Z,3.80
2018-10-12T22:30:41.427Z,3.67
2018-10-12T22:33:10.268Z,3.67
2018-10-12T22:35:38.903Z,4.30
2018-10-12T22:38:07.600Z,3.47
2018-10-12T22:40:36.344Z,4.20
2018-10-12T22:43:04.984Z,3.60
2018-10-12T22:45:33.634Z,4.10
2018-10-12T22:48:02.271Z,4.00
2018-10-12T22:50:31.145Z,2.87
2018-10-12T22:52:59.797Z,4.10
2018-10-12T22:55:28.433Z,4.37
2018-10-12T22:58:02.821Z,3.93
2018-10-12T23:00:32.705Z,3.57
2018-10-12T23:03:01.665Z,3.90
2018-10-12T23:05:30.548Z,3.83
2018-10-12T23:07:59.244Z,4.73
2018-10-12T23:10:27.874Z,4.37
2018-10-12T23:12:56.622Z,4.53
2018-10-12T23:15:25.326Z,4.43
2018-10-12T23:17:53.983Z,4.20
2018-10-12T23:20:22.630Z,4.57
2018-10-12T23:22:51.295Z,3.90
2018-10-12T23:25:20.019Z,4.80
2018-10-12T23:27:48.756Z,3.70
2018-10-12T23:30:17.455Z,4.97
2018-10-12T23:32:46.160Z,4.60
2018-10-12T23:35:14.840Z,3.60
2018-10-12T23:37:43.466Z,4.03
2018-10-12T23:40:12.120Z,4.67
2018-10-12T23:42:40.822Z,4.57
2018-10-12T23:45:09.519Z,4.90
2018-10-12T23:47:38.133Z,5.10
2018-10-12T23:50:06.841Z,4.63
2018-10-12T23:52:35.522Z,5.07
2018-10-12T23:55:04.763Z,4.70
2018-10-12T23:57:33.566Z,4.90
